MWCB

Details ICAO MWCB (CYB)
Name Cayman Brac Gerrard Smith Intl
Region Cayman Islands
Timezone Unknown (UTC+0.0)
Plans Departing 21
Arriving 31
Stats Elevation 7 ft / 2 m (AMSL)
Location 19.686981° -79.882789°
Runways 1
Magnetic Variation 6.003° W
Sunrise 2018-05-23 10:42:59 UTC / 2018-05-23 10:42:59 Local
Sunset 2018-05-23 23:52:29 UTC / 2018-05-23 23:52:29 Local
Advertisement - Login to hide

Runways

ID Width Length Bearing (true) Bearing (mag) Surface Threshold Offset Overrun Length
09 148 ft / 45 m 5,965 ft / 1,818 m 84.73° 90.73° Asphalt 0 ft / 0 m 36 ft / 11 m
27 148 ft / 45 m 5,965 ft / 1,818 m 264.74° 270.74° Asphalt 0 ft / 0 m 26 ft / 8 m

Map

Weather


0- 5 10 15 20 25 30 35+ Temperature / ° C

Clouds and Precipitation
Forecast for 2018-05-23 12:00 UTC. Updated 4 hours ago

Ground ~20,000 ft ~40,000 ft Winds

METAR

MWCB 231500Z 13010KT 9999 SCT016 28/25 Q1016

TAF

TAF TAF MWCB 231100Z 2312/2412 14010G20KT 9000 RA VCSH SCT012TCU OVC070

Frequencies

Tower 118.40 MHz TWR
Approach 120.20 MHz CAYMAN APP
Warning: Do not use this data for real-world aviation or navigation. No guarantee of current accuracy is given.